Lela Joy — WBP2597 — position and weather

sailwx.info

Track history (hours):
 
Tides and Currents Weather Stations Pressure Air Temp Water Temp Dewpoint Dewpoint Depression Visibility Wind Speed Wind Dir Waves Ship Positions

Lela Joy

Owner: Harley Marine Services, INC, SEATTLE, WA. More information available from US FCC via Universal Licensing System and Coast Guard Vessel Documentation Center.

Last reported at 2018-Feb-18 02:38 UTC. Time now 2018-Feb-18 08:38 UTC.
Position N 47°17' W 122°25'.

Length 26 m; draft 4 m.

Type: Towing. MMSI: 366980230.

Date/timePositionNaut miles runAvg speedWind from/ knotsBaromVisibWave heightAir tempDewpointWater temp
2018-Feb-18 02:38N 47°17' W 122°25'1 3.2
2018-Feb-18 02:19N 47°16' W 122°25'0 0.0
2018-Feb-17 20:58N 47°16' W 122°25'0 0.0
2018-Feb-16 14:48N 47°16' W 122°25'0 0.0
2018-Feb-15 22:28N 47°16' W 122°25'1 2.6
2018-Feb-15 22:00N 47°17' W 122°26'2 4.1
2018-Feb-15 21:30N 47°18' W 122°28'4 7.8
2018-Feb-15 21:00N 47°22' W 122°24'3 6.2
2018-Feb-15 20:30N 47°25' W 122°23'4 7.5
2018-Feb-15 20:00N 47°28' W 122°25'4 7.8
2018-Feb-15 19:30N 47°32' W 122°27'3 5.8
2018-Feb-15 19:00N 47°33' W 122°31'1 1.2
2018-Feb-15 18:30N 47°33' W 122°31'0 0.1
2018-Feb-15 18:00N 47°33' W 122°31'0 0.0
2018-Feb-15 17:30N 47°33' W 122°31'0 0.0
2018-Feb-15 17:00N 47°33' W 122°31'0 0.0
2018-Feb-15 16:30N 47°33' W 122°31'0 0.1
2018-Feb-15 16:00N 47°33' W 122°31'0 0.1
2018-Feb-15 15:30N 47°33' W 122°31'0 0.0
2018-Feb-15 15:00N 47°33' W 122°31'0 0.1
2018-Feb-15 14:30N 47°33' W 122°31'0 0.8
2018-Feb-15 14:00N 47°33' W 122°31'1 2.2
2018-Feb-15 13:30N 47°33' W 122°30'0 0.1
2018-Feb-15 13:00N 47°33' W 122°30'0 0.1
2018-Feb-15 12:30N 47°33' W 122°30'0 0.0
2018-Feb-15 12:00N 47°33' W 122°30'0 0.0
2018-Feb-15 11:30N 47°33' W 122°30'0 0.1
2018-Feb-15 11:00N 47°33' W 122°30'0 0.0
2018-Feb-15 10:30N 47°33' W 122°30'0 0.1
2018-Feb-15 10:00N 47°33' W 122°30'0 0.3
2018-Feb-15 09:30N 47°34' W 122°29'0 0.2
2018-Feb-15 09:00N 47°34' W 122°29'0 0.0
2018-Feb-15 08:30N 47°34' W 122°29'0 0.0
2018-Feb-15 08:00N 47°34' W 122°29'0 0.2
2018-Feb-15 07:30N 47°34' W 122°29'0 0.1
2018-Feb-15 07:00N 47°33' W 122°29'0 0.0
2018-Feb-15 06:30N 47°33' W 122°29'0 0.0
2018-Feb-15 06:00N 47°33' W 122°29'0 0.0
2018-Feb-15 05:30N 47°33' W 122°29'0 0.0
2018-Feb-15 05:00N 47°34' W 122°29'0 0.1
2018-Feb-15 04:30N 47°33' W 122°29'0 0.4
2018-Feb-15 04:00N 47°33' W 122°29'2 4.5
2018-Feb-15 03:30N 47°35' W 122°26'3 5.4
2018-Feb-15 02:58N 47°36' W 122°23'1 2.9
2018-Feb-15 02:30N 47°35' W 122°21'0 0.1
2018-Feb-15 02:00N 47°35' W 122°21'0 0.0
2018-Feb-15 01:30N 47°35' W 122°21'0 0.0
2018-Feb-15 00:20N 47°35' W 122°21'0 0.0
2018-Feb-14 23:58N 47°35' W 122°21'0 0.0
2018-Feb-14 23:26N 47°35' W 122°21'0 0.0
2018-Feb-14 23:00N 47°35' W 122°21'0 0.0
2018-Feb-14 22:30N 47°35' W 122°21'0 0.0
2018-Feb-14 21:54N 47°35' W 122°21'0 0.0
2018-Feb-14 20:26N 47°35' W 122°21'0 0.0
2018-Feb-14 20:00N 47°35' W 122°21'0 0.1
2018-Feb-14 19:30N 47°35' W 122°21'1 1.4
2018-Feb-14 19:01N 47°36' W 122°21'0 0.8
2018-Feb-14 18:31N 47°36' W 122°22'2 4.1
2018-Feb-14 18:01N 47°35' W 122°25'3 6.4
2018-Feb-14 17:31N 47°32' W 122°25'5 9.0
2018-Feb-14 17:01N 47°28' W 122°24'4 8.9
2018-Feb-14 16:31N 47°24' W 122°21'4 7.5
2018-Feb-14 16:00N 47°21' W 122°24'4 7.0
2018-Feb-14 15:30N 47°18' W 122°27'2 2.5
2018-Feb-14 14:51N 47°17' W 122°25'0 0.0
2018-Feb-14 13:47N 47°17' W 122°25'0 0.0
2018-Feb-14 13:30N 47°17' W 122°25'0 0.0
2018-Feb-14 12:34N 47°17' W 122°25'0 0.0
2018-Feb-14 12:28N 47°17' W 122°25'0 0.0
2018-Feb-14 11:55N 47°17' W 122°25'0 0.0
2018-Feb-14 11:29N 47°17' W 122°25'0 0.0
2018-Feb-14 10:48N 47°17' W 122°25'0 0.0
2018-Feb-14 10:29N 47°17' W 122°25'0 0.0
2018-Feb-14 09:59N 47°17' W 122°25'0 0.0
2018-Feb-14 09:30N 47°17' W 122°25'0 0.0
2018-Feb-14 08:59N 47°17' W 122°25'0 0.0
2018-Feb-14 08:31N 47°17' W 122°25'0 0.0
2018-Feb-14 08:01N 47°17' W 122°25'0 0.0
2018-Feb-14 07:30N 47°17' W 122°25'0 0.0
2018-Feb-14 07:00N 47°17' W 122°25'0 0.0
2018-Feb-14 06:30N 47°17' W 122°25'0 0.0
2018-Feb-14 06:00N 47°17' W 122°25'0 0.0
2018-Feb-14 04:11N 47°17' W 122°25'0 0.0
2018-Feb-14 03:51N 47°17' W 122°25'0 0.5
2018-Feb-14 03:06N 47°17' W 122°25'0 3.1
2018-Feb-14 03:00N 47°17' W 122°26'2 1.7
2018-Feb-14 01:47N 47°16' W 122°23'0 0.0
2018-Feb-14 01:26N 47°16' W 122°23'0 0.0
2018-Feb-14 00:50N 47°16' W 122°23'0 0.0
2018-Feb-13 23:55N 47°16' W 122°23'0 0.0
2018-Feb-13 23:27N 47°16' W 122°23'0 0.0
2018-Feb-13 12:07N 47°16' W 122°23'0 0.2
2018-Feb-13 11:57N 47°16' W 122°23'2 3.7
2018-Feb-13 11:25N 47°17' W 122°25'2 0.3
2018-Feb-13 04:14N 47°16' W 122°23'0 0.1
2018-Feb-13 03:55N 47°16' W 122°23'1 3.3
2018-Feb-13 03:30N 47°17' W 122°24'1 1.2
2018-Feb-13 02:55N 47°17' W 122°25'2 3.9
2018-Feb-13 02:23N 47°16' W 122°23'0 0.0
2018-Feb-13 00:45N 47°16' W 122°23'0 0.0
2018-Feb-13 00:18N 47°16' W 122°23'0 0.0
2018-Feb-12 23:59N 47°16' W 122°23'0 0.0
2018-Feb-12 23:30N 47°16' W 122°23'0 0.0
2018-Feb-12 22:54N 47°16' W 122°23'0 0.0
2018-Feb-12 22:30N 47°16' W 122°23'0 0.0
2018-Feb-12 20:47N 47°16' W 122°23'0 0.0
2018-Feb-12 20:20N 47°16' W 122°23'0 1.2
2018-Feb-12 20:00N 47°16' W 122°23'2 3.2
2018-Feb-12 19:30N 47°17' W 122°25'1 2.6
2018-Feb-12 19:00N 47°18' W 122°27'2 4.5
2018-Feb-12 18:31N 47°20' W 122°28'3 6.9
2018-Feb-12 18:01N 47°22' W 122°24'3 5.3
2018-Feb-12 17:30N 47°25' W 122°23'4 7.2
2018-Feb-12 17:01N 47°28' W 122°25'4 7.4
2018-Feb-12 16:30N 47°32' W 122°26'3 6.8
2018-Feb-12 16:00N 47°35' W 122°26'3 5.3
2018-Feb-12 15:26N 47°36' W 122°21'1 0.7
2018-Feb-12 14:40N 47°35' W 122°21'0 0.1
2018-Feb-12 14:04N 47°35' W 122°21'0 0.0
2018-Feb-12 14:00N 47°35' W 122°21'0 0.0
2018-Feb-12 13:26N 47°35' W 122°21'0 0.0
2018-Feb-12 12:59N 47°35' W 122°21'0 0.0
2018-Feb-12 12:30N 47°35' W 122°21'0 0.0
2018-Feb-12 11:53N 47°35' W 122°21'0 0.0
2018-Feb-12 11:28N 47°35' W 122°21'0 0.0
2018-Feb-12 11:00N 47°35' W 122°21'0 0.0
2018-Feb-12 10:31N 47°35' W 122°21'0 0.0
2018-Feb-12 10:00N 47°35' W 122°21'0 0.0
2018-Feb-12 09:30N 47°35' W 122°21'0 0.0
2018-Feb-12 09:00N 47°35' W 122°21'0 0.0
2018-Feb-12 08:31N 47°35' W 122°21'0 0.0
2018-Feb-12 08:01N 47°35' W 122°21'0 0.0
2018-Feb-12 07:30N 47°35' W 122°21'0 0.0
2018-Feb-12 07:00N 47°35' W 122°21'0 0.0
2018-Feb-12 06:30N 47°35' W 122°21'0 0.0
2018-Feb-12 06:01N 47°35' W 122°21'0 0.0
2018-Feb-12 05:23N 47°35' W 122°21'0 0.0
2018-Feb-12 05:01N 47°35' W 122°21'0 0.0
2018-Feb-12 04:26N 47°35' W 122°21'0 0.0
2018-Feb-12 04:00N 47°35' W 122°21'0 0.2
2018-Feb-12 03:28N 47°35' W 122°21'0 0.0
2018-Feb-12 00:50N 47°35' W 122°21'0 0.0
2018-Feb-11 18:08N 47°35' W 122°21'0 0.0
2018-Feb-11 17:59N 47°35' W 122°21'0 0.0
2018-Feb-11 17:30N 47°35' W 122°21'0 0.0
2018-Feb-11 16:21N 47°35' W 122°21'0 0.0
2018-Feb-11 15:57N 47°35' W 122°21'0 0.0
2018-Feb-11 13:11N 47°35' W 122°21'0 0.0
2018-Feb-11 10:45N 47°35' W 122°21'0 0.0
2018-Feb-11 10:28N 47°35' W 122°21'0 0.0
2018-Feb-11 09:38N 47°35' W 122°21'0 0.0
2018-Feb-11 09:30N 47°35' W 122°21'0 0.0
2018-Feb-11 08:57N 47°35' W 122°21'0 0.0
2018-Feb-11 08:17N 47°35' W 122°21'0 0.0
2018-Feb-11 02:11N 47°35' W 122°21'0 0.0
2018-Feb-11 00:51N 47°35' W 122°21'0 0.0
2018-Feb-10 23:44N 47°35' W 122°21'0 0.0
2018-Feb-10 21:28N 47°35' W 122°21'0 0.0
2018-Feb-10 20:47N 47°35' W 122°21'0 0.0
2018-Feb-10 14:17N 47°35' W 122°21'0 0.0
2018-Feb-10 13:55N 47°35' W 122°21'0 0.0
2018-Feb-10 12:31N 47°35' W 122°21'0 0.0
2018-Feb-10 12:30N 47°35' W 122°21'0 0.0
2018-Feb-10 10:50N 47°35' W 122°21'0 0.0
2018-Feb-10 10:30N 47°35' W 122°21'0 0.1
2018-Feb-10 09:54N 47°35' W 122°21'2 4.3
2018-Feb-10 09:31N 47°37' W 122°22'0 0.5
2018-Feb-10 09:01N 47°37' W 122°23'0 0.0
2018-Feb-10 08:30N 47°37' W 122°23'0 0.0
2018-Feb-10 08:01N 47°37' W 122°23'0 0.1
2018-Feb-10 07:31N 47°37' W 122°23'0 0.0
2018-Feb-10 07:01N 47°37' W 122°23'0 0.2
2018-Feb-10 06:30N 47°37' W 122°23'0 0.2
2018-Feb-10 06:00N 47°37' W 122°23'0 0.1
2018-Feb-10 05:31N 47°37' W 122°23'0 0.1
2018-Feb-10 05:00N 47°37' W 122°23'0 0.0
2018-Feb-10 04:30N 47°37' W 122°23'0 0.2
2018-Feb-10 04:00N 47°37' W 122°23'0 0.1
2018-Feb-10 03:31N 47°37' W 122°23'0 0.2
2018-Feb-10 03:00N 47°37' W 122°23'1 2.4
2018-Feb-10 02:30N 47°36' W 122°24'3 5.4
2018-Feb-10 02:01N 47°34' W 122°26'4 7.7
2018-Feb-10 01:31N 47°30' W 122°25'4 8.0
2018-Feb-10 01:00N 47°26' W 122°23'4 7.8
2018-Feb-10 00:31N 47°23' W 122°21'4 7.8
2018-Feb-10 00:01N 47°20' W 122°25'3 5.9
2018-Feb-09 23:31N 47°17' W 122°26'2 0.2
2018-Feb-09 14:31N 47°19' W 122°28'6 5.9
2018-Feb-09 13:31N 47°23' W 122°22'3 6.4
2018-Feb-09 13:01N 47°26' W 122°24'9 5.7
2018-Feb-09 11:31N 47°34' W 122°27'4 0.9
2018-Feb-09 07:01N 47°35' W 122°21'0 0.0
2018-Feb-09 06:31N 47°35' W 122°21'0 0.0
2018-Feb-09 05:01N 47°35' W 122°21'0 0.0
2018-Feb-09 04:31N 47°35' W 122°21'0 0.0
2018-Feb-09 01:01N 47°35' W 122°21'0 0.0
2018-Feb-08 11:00N 47°35' W 122°21'1 0.1
2018-Feb-08 03:00N 47°36' W 122°22'  
Track history (hours):
 
Tides and Currents Weather Stations Pressure Air Temp Water Temp Dewpoint Dewpoint Depression Visibility Wind Speed Wind Dir Waves Ship Positions

Lela Joy

Owner: Harley Marine Services, INC, SEATTLE, WA. More information available from US FCC via Universal Licensing System and Coast Guard Vessel Documentation Center.

Last reported at 2018-Feb-18 02:38 UTC. Time now 2018-Feb-18 08:38 UTC.
Position N 47°17' W 122°25'.

Length 26 m; draft 4 m.

Type: Towing. MMSI: 366980230.

Date/timePositionNaut miles runAvg speedWind from/ knotsBaromVisibWave heightAir tempDewpointWater temp
2018-Feb-18 02:38N 47°17' W 122°25'1 3.2
2018-Feb-18 02:19N 47°16' W 122°25'0 0.0
2018-Feb-17 20:58N 47°16' W 122°25'0 0.0
2018-Feb-16 14:48N 47°16' W 122°25'0 0.0
2018-Feb-15 22:28N 47°16' W 122°25'1 2.6
2018-Feb-15 22:00N 47°17' W 122°26'2 4.1
2018-Feb-15 21:30N 47°18' W 122°28'4 7.8
2018-Feb-15 21:00N 47°22' W 122°24'3 6.2
2018-Feb-15 20:30N 47°25' W 122°23'4 7.5
2018-Feb-15 20:00N 47°28' W 122°25'4 7.8
2018-Feb-15 19:30N 47°32' W 122°27'3 5.8
2018-Feb-15 19:00N 47°33' W 122°31'1 1.2
2018-Feb-15 18:30N 47°33' W 122°31'0 0.1
2018-Feb-15 18:00N 47°33' W 122°31'0 0.0
2018-Feb-15 17:30N 47°33' W 122°31'0 0.0
2018-Feb-15 17:00N 47°33' W 122°31'0 0.0
2018-Feb-15 16:30N 47°33' W 122°31'0 0.1
2018-Feb-15 16:00N 47°33' W 122°31'0 0.1
2018-Feb-15 15:30N 47°33' W 122°31'0 0.0
2018-Feb-15 15:00N 47°33' W 122°31'0 0.1
2018-Feb-15 14:30N 47°33' W 122°31'0 0.8
2018-Feb-15 14:00N 47°33' W 122°31'1 2.2
2018-Feb-15 13:30N 47°33' W 122°30'0 0.1
2018-Feb-15 13:00N 47°33' W 122°30'0 0.1
2018-Feb-15 12:30N 47°33' W 122°30'0 0.0
2018-Feb-15 12:00N 47°33' W 122°30'0 0.0
2018-Feb-15 11:30N 47°33' W 122°30'0 0.1
2018-Feb-15 11:00N 47°33' W 122°30'0 0.0
2018-Feb-15 10:30N 47°33' W 122°30'0 0.1
2018-Feb-15 10:00N 47°33' W 122°30'0 0.3
2018-Feb-15 09:30N 47°34' W 122°29'0 0.2
2018-Feb-15 09:00N 47°34' W 122°29'0 0.0
2018-Feb-15 08:30N 47°34' W 122°29'0 0.0
2018-Feb-15 08:00N 47°34' W 122°29'0 0.2
2018-Feb-15 07:30N 47°34' W 122°29'0 0.1
2018-Feb-15 07:00N 47°33' W 122°29'0 0.0
2018-Feb-15 06:30N 47°33' W 122°29'0 0.0
2018-Feb-15 06:00N 47°33' W 122°29'0 0.0
2018-Feb-15 05:30N 47°33' W 122°29'0 0.0
2018-Feb-15 05:00N 47°34' W 122°29'0 0.1
2018-Feb-15 04:30N 47°33' W 122°29'0 0.4
2018-Feb-15 04:00N 47°33' W 122°29'2 4.5
2018-Feb-15 03:30N 47°35' W 122°26'3 5.4
2018-Feb-15 02:58N 47°36' W 122°23'1 2.9
2018-Feb-15 02:30N 47°35' W 122°21'0 0.1
2018-Feb-15 02:00N 47°35' W 122°21'0 0.0
2018-Feb-15 01:30N 47°35' W 122°21'0 0.0
2018-Feb-15 00:20N 47°35' W 122°21'0 0.0
2018-Feb-14 23:58N 47°35' W 122°21'0 0.0
2018-Feb-14 23:26N 47°35' W 122°21'0 0.0
2018-Feb-14 23:00N 47°35' W 122°21'0 0.0
2018-Feb-14 22:30N 47°35' W 122°21'0 0.0
2018-Feb-14 21:54N 47°35' W 122°21'0 0.0
2018-Feb-14 20:26N 47°35' W 122°21'0 0.0
2018-Feb-14 20:00N 47°35' W 122°21'0 0.1
2018-Feb-14 19:30N 47°35' W 122°21'1 1.4
2018-Feb-14 19:01N 47°36' W 122°21'0 0.8
2018-Feb-14 18:31N 47°36' W 122°22'2 4.1
2018-Feb-14 18:01N 47°35' W 122°25'3 6.4
2018-Feb-14 17:31N 47°32' W 122°25'5 9.0
2018-Feb-14 17:01N 47°28' W 122°24'4 8.9
2018-Feb-14 16:31N 47°24' W 122°21'4 7.5
2018-Feb-14 16:00N 47°21' W 122°24'4 7.0
2018-Feb-14 15:30N 47°18' W 122°27'2 2.5
2018-Feb-14 14:51N 47°17' W 122°25'0 0.0
2018-Feb-14 13:47N 47°17' W 122°25'0 0.0
2018-Feb-14 13:30N 47°17' W 122°25'0 0.0
2018-Feb-14 12:34N 47°17' W 122°25'0 0.0
2018-Feb-14 12:28N 47°17' W 122°25'0 0.0
2018-Feb-14 11:55N 47°17' W 122°25'0 0.0
2018-Feb-14 11:29N 47°17' W 122°25'0 0.0
2018-Feb-14 10:48N 47°17' W 122°25'0 0.0
2018-Feb-14 10:29N 47°17' W 122°25'0 0.0
2018-Feb-14 09:59N 47°17' W 122°25'0 0.0
2018-Feb-14 09:30N 47°17' W 122°25'0 0.0
2018-Feb-14 08:59N 47°17' W 122°25'0 0.0
2018-Feb-14 08:31N 47°17' W 122°25'0 0.0
2018-Feb-14 08:01N 47°17' W 122°25'0 0.0
2018-Feb-14 07:30N 47°17' W 122°25'0 0.0
2018-Feb-14 07:00N 47°17' W 122°25'0 0.0
2018-Feb-14 06:30N 47°17' W 122°25'0 0.0
2018-Feb-14 06:00N 47°17' W 122°25'0 0.0
2018-Feb-14 04:11N 47°17' W 122°25'0 0.0
2018-Feb-14 03:51N 47°17' W 122°25'0 0.5
2018-Feb-14 03:06N 47°17' W 122°25'0 3.1
2018-Feb-14 03:00N 47°17' W 122°26'2 1.7
2018-Feb-14 01:47N 47°16' W 122°23'0 0.0
2018-Feb-14 01:26N 47°16' W 122°23'0 0.0
2018-Feb-14 00:50N 47°16' W 122°23'0 0.0
2018-Feb-13 23:55N 47°16' W 122°23'0 0.0
2018-Feb-13 23:27N 47°16' W 122°23'0 0.0
2018-Feb-13 12:07N 47°16' W 122°23'0 0.2
2018-Feb-13 11:57N 47°16' W 122°23'2 3.7
2018-Feb-13 11:25N 47°17' W 122°25'2 0.3
2018-Feb-13 04:14N 47°16' W 122°23'0 0.1
2018-Feb-13 03:55N 47°16' W 122°23'1 3.3
2018-Feb-13 03:30N 47°17' W 122°24'1 1.2
2018-Feb-13 02:55N 47°17' W 122°25'2 3.9
2018-Feb-13 02:23N 47°16' W 122°23'0 0.0
2018-Feb-13 00:45N 47°16' W 122°23'0 0.0
2018-Feb-13 00:18N 47°16' W 122°23'0 0.0
2018-Feb-12 23:59N 47°16' W 122°23'0 0.0
2018-Feb-12 23:30N 47°16' W 122°23'0 0.0
2018-Feb-12 22:54N 47°16' W 122°23'0 0.0
2018-Feb-12 22:30N 47°16' W 122°23'0 0.0
2018-Feb-12 20:47N 47°16' W 122°23'0 0.0
2018-Feb-12 20:20N 47°16' W 122°23'0 1.2
2018-Feb-12 20:00N 47°16' W 122°23'2 3.2
2018-Feb-12 19:30N 47°17' W 122°25'1 2.6
2018-Feb-12 19:00N 47°18' W 122°27'2 4.5
2018-Feb-12 18:31N 47°20' W 122°28'3 6.9
2018-Feb-12 18:01N 47°22' W 122°24'3 5.3
2018-Feb-12 17:30N 47°25' W 122°23'4 7.2
2018-Feb-12 17:01N 47°28' W 122°25'4 7.4
2018-Feb-12 16:30N 47°32' W 122°26'3 6.8
2018-Feb-12 16:00N 47°35' W 122°26'3 5.3
2018-Feb-12 15:26N 47°36' W 122°21'1 0.7
2018-Feb-12 14:40N 47°35' W 122°21'0 0.1
2018-Feb-12 14:04N 47°35' W 122°21'0 0.0
2018-Feb-12 14:00N 47°35' W 122°21'0 0.0
2018-Feb-12 13:26N 47°35' W 122°21'0 0.0
2018-Feb-12 12:59N 47°35' W 122°21'0 0.0
2018-Feb-12 12:30N 47°35' W 122°21'0 0.0
2018-Feb-12 11:53N 47°35' W 122°21'0 0.0
2018-Feb-12 11:28N 47°35' W 122°21'0 0.0
2018-Feb-12 11:00N 47°35' W 122°21'0 0.0
2018-Feb-12 10:31N 47°35' W 122°21'0 0.0
2018-Feb-12 10:00N 47°35' W 122°21'0 0.0
2018-Feb-12 09:30N 47°35' W 122°21'0 0.0
2018-Feb-12 09:00N 47°35' W 122°21'0 0.0
2018-Feb-12 08:31N 47°35' W 122°21'0 0.0
2018-Feb-12 08:01N 47°35' W 122°21'0 0.0
2018-Feb-12 07:30N 47°35' W 122°21'0 0.0
2018-Feb-12 07:00N 47°35' W 122°21'0 0.0
2018-Feb-12 06:30N 47°35' W 122°21'0 0.0
2018-Feb-12 06:01N 47°35' W 122°21'0 0.0
2018-Feb-12 05:23N 47°35' W 122°21'0 0.0
2018-Feb-12 05:01N 47°35' W 122°21'0 0.0
2018-Feb-12 04:26N 47°35' W 122°21'0 0.0
2018-Feb-12 04:00N 47°35' W 122°21'0 0.2
2018-Feb-12 03:28N 47°35' W 122°21'0 0.0
2018-Feb-12 00:50N 47°35' W 122°21'0 0.0
2018-Feb-11 18:08N 47°35' W 122°21'0 0.0
2018-Feb-11 17:59N 47°35' W 122°21'0 0.0
2018-Feb-11 17:30N 47°35' W 122°21'0 0.0
2018-Feb-11 16:21N 47°35' W 122°21'0 0.0
2018-Feb-11 15:57N 47°35' W 122°21'0 0.0
2018-Feb-11 13:11N 47°35' W 122°21'0 0.0
2018-Feb-11 10:45N 47°35' W 122°21'0 0.0
2018-Feb-11 10:28N 47°35' W 122°21'0 0.0
2018-Feb-11 09:38N 47°35' W 122°21'0 0.0
2018-Feb-11 09:30N 47°35' W 122°21'0 0.0
2018-Feb-11 08:57N 47°35' W 122°21'0 0.0
2018-Feb-11 08:17N 47°35' W 122°21'0 0.0
2018-Feb-11 02:11N 47°35' W 122°21'0 0.0
2018-Feb-11 00:51N 47°35' W 122°21'0 0.0
2018-Feb-10 23:44N 47°35' W 122°21'0 0.0
2018-Feb-10 21:28N 47°35' W 122°21'0 0.0
2018-Feb-10 20:47N 47°35' W 122°21'0 0.0
2018-Feb-10 14:17N 47°35' W 122°21'0 0.0
2018-Feb-10 13:55N 47°35' W 122°21'0 0.0
2018-Feb-10 12:31N 47°35' W 122°21'0 0.0
2018-Feb-10 12:30N 47°35' W 122°21'0 0.0
2018-Feb-10 10:50N 47°35' W 122°21'0 0.0
2018-Feb-10 10:30N 47°35' W 122°21'0 0.1
2018-Feb-10 09:54N 47°35' W 122°21'2 4.3
2018-Feb-10 09:31N 47°37' W 122°22'0 0.5
2018-Feb-10 09:01N 47°37' W 122°23'0 0.0
2018-Feb-10 08:30N 47°37' W 122°23'0 0.0
2018-Feb-10 08:01N 47°37' W 122°23'0 0.1
2018-Feb-10 07:31N 47°37' W 122°23'0 0.0
2018-Feb-10 07:01N 47°37' W 122°23'0 0.2
2018-Feb-10 06:30N 47°37' W 122°23'0 0.2
2018-Feb-10 06:00N 47°37' W 122°23'0 0.1
2018-Feb-10 05:31N 47°37' W 122°23'0 0.1
2018-Feb-10 05:00N 47°37' W 122°23'0 0.0
2018-Feb-10 04:30N 47°37' W 122°23'0 0.2
2018-Feb-10 04:00N 47°37' W 122°23'0 0.1
2018-Feb-10 03:31N 47°37' W 122°23'0 0.2
2018-Feb-10 03:00N 47°37' W 122°23'1 2.4
2018-Feb-10 02:30N 47°36' W 122°24'3 5.4
2018-Feb-10 02:01N 47°34' W 122°26'4 7.7
2018-Feb-10 01:31N 47°30' W 122°25'4 8.0
2018-Feb-10 01:00N 47°26' W 122°23'4 7.8
2018-Feb-10 00:31N 47°23' W 122°21'4 7.8
2018-Feb-10 00:01N 47°20' W 122°25'3 5.9
2018-Feb-09 23:31N 47°17' W 122°26'2 0.2
2018-Feb-09 14:31N 47°19' W 122°28'6 5.9
2018-Feb-09 13:31N 47°23' W 122°22'3 6.4
2018-Feb-09 13:01N 47°26' W 122°24'9 5.7
2018-Feb-09 11:31N 47°34' W 122°27'4 0.9
2018-Feb-09 07:01N 47°35' W 122°21'0 0.0
2018-Feb-09 06:31N 47°35' W 122°21'0 0.0
2018-Feb-09 05:01N 47°35' W 122°21'0 0.0
2018-Feb-09 04:31N 47°35' W 122°21'0 0.0
2018-Feb-09 01:01N 47°35' W 122°21'0 0.0
2018-Feb-08 11:00N 47°35' W 122°21'1 0.1
2018-Feb-08 03:00N 47°36' W 122°22'  

Dump ship's entire track history